Time;durP1;ratioP1;P1;durP2;ratioP2;P2;SDS_P1;SDS_P2;PMS_P1;PMS_P2;Temp;Humidity;BMP_temperature;BMP_pressure;BME280_temperature;BME280_humidity;BME280_pressure;Samples;Min_cycle;Max_cycle;Signal;HPM_P1;HPM_P2
2021/01/21 00:00:01;;;;;;;5.43;1.80;;;9.40;82.80;;;;;;5018598;28;20045;-64
2021/01/21 00:02:26;;;;;;;3.38;1.00;;;9.50;82.40;;;;;;5025796;28;20447;-64
2021/01/21 00:04:52;;;;;;;6.15;1.50;;;9.50;82.20;;;;;;5024204;28;20072;-64
2021/01/21 00:07:17;;;;;;;4.97;1.35;;;9.50;82.00;;;;;;5023705;28;20041;-64
2021/01/21 00:09:43;;;;;;;4.57;1.15;;;9.50;81.80;;;;;;5027511;28;20100;-64
2021/01/21 00:12:09;;;;;;;6.80;1.08;;;9.50;81.80;;;;;;5023206;28;20595;-64
2021/01/21 00:14:35;;;;;;;6.95;1.80;;;9.50;81.70;;;;;;5026104;28;20099;-64
2021/01/21 00:17:01;;;;;;;4.32;1.33;;;9.50;81.90;;;;;;5027078;28;20041;-64
2021/01/21 00:19:26;;;;;;;5.68;1.00;;;9.50;81.80;;;;;;5025468;28;20038;-64
2021/01/21 00:21:52;;;;;;;3.78;1.08;;;9.50;81.50;;;;;;5024904;28;20434;-64
2021/01/21 00:24:17;;;;;;;5.20;1.33;;;9.50;81.50;;;;;;5020496;28;20475;-64
2021/01/21 00:26:43;;;;;;;3.67;1.42;;;9.50;81.40;;;;;;5024250;28;20502;-64
2021/01/21 00:29:10;;;;;;;8.20;1.70;;;9.50;81.60;;;;;;5025213;28;20096;-64
2021/01/21 00:31:36;;;;;;;4.47;1.20;;;9.50;81.40;;;;;;5022904;28;20049;-64
2021/01/21 00:34:01;;;;;;;3.00;1.30;;;9.40;81.60;;;;;;5030383;28;20030;-64
2021/01/21 00:36:27;;;;;;;3.75;1.52;;;9.40;82.40;;;;;;5023912;28;20038;-64
2021/01/21 00:38:53;;;;;;;5.78;1.42;;;9.40;81.40;;;;;;5021487;28;20056;-64
2021/01/21 00:41:18;;;;;;;3.72;1.20;;;9.40;81.50;;;;;;5022815;28;20060;-64
2021/01/21 00:43:44;;;;;;;5.70;1.27;;;9.40;81.40;;;;;;5025833;28;20162;-64
2021/01/21 00:46:09;;;;;;;3.08;1.20;;;9.30;81.60;;;;;;5020288;28;20057;-64
2021/01/21 00:48:35;;;;;;;4.78;0.90;;;9.40;81.40;;;;;;5029209;28;20049;-64
2021/01/21 00:51:01;;;;;;;7.10;1.08;;;9.40;81.70;;;;;;5024825;28;20030;-64
2021/01/21 00:53:26;;;;;;;3.83;1.20;;;9.40;81.40;;;;;;5021510;28;20056;-64
2021/01/21 00:55:52;;;;;;;3.42;0.77;;;9.30;81.60;;;;;;5023464;28;20450;-64
2021/01/21 00:58:18;;;;;;;4.38;1.20;;;9.30;81.80;;;;;;5026939;28;20049;-64
2021/01/21 01:00:43;;;;;;;5.38;0.95;;;9.30;81.70;;;;;;5024603;28;20084;-64
2021/01/21 01:03:09;;;;;;;2.80;0.98;;;9.30;81.60;;;;;;5023483;28;20477;-64
2021/01/21 01:05:35;;;;;;;2.40;0.95;;;9.30;81.60;;;;;;5020965;28;20042;-64
2021/01/21 01:08:01;;;;;;;2.97;1.00;;;9.40;81.70;;;;;;5023720;28;20041;-64
2021/01/21 01:10:27;;;;;;;4.43;1.33;;;9.40;81.00;;;;;;5027035;28;20064;-64
2021/01/21 01:12:53;;;;;;;3.63;1.13;;;9.40;81.10;;;;;;5023158;28;20075;-64
2021/01/21 01:15:25;;;;;;;3.72;1.02;;;9.40;80.90;;;;;;5022790;28;20042;-64
2021/01/21 01:17:51;;;;;;;2.47;0.70;;;9.40;80.70;;;;;;5024387;28;20483;-64
2021/01/21 01:20:17;;;;;;;4.65;1.50;;;9.40;80.40;;;;;;5026492;28;20041;-64
2021/01/21 01:22:48;;;;;;;2.08;0.70;;;9.50;80.50;;;;;;5018270;28;20048;-64
2021/01/21 01:25:14;;;;;;;2.72;0.82;;;9.50;80.30;;;;;;5021940;28;20427;-64
2021/01/21 01:27:43;;;;;;;6.97;1.13;;;9.40;80.40;;;;;;5027708;28;20045;-64
2021/01/21 01:30:13;;;;;;;3.75;1.05;;;9.40;80.30;;;;;;5026196;28;20392;-64
2021/01/21 01:32:39;;;;;;;3.67;1.15;;;9.40;80.00;;;;;;5027855;28;20033;-64
2021/01/21 01:35:06;;;;;;;5.68;1.17;;;9.40;79.90;;;;;;5030936;28;20480;-64
2021/01/21 01:37:31;;;;;;;3.22;0.60;;;9.40;80.00;;;;;;5024077;28;20479;-64
2021/01/21 01:39:57;;;;;;;3.58;0.80;;;9.40;79.90;;;;;;5025505;28;20092;-64
2021/01/21 01:42:23;;;;;;;4.43;1.02;;;9.30;80.20;;;;;;5031856;28;20135;-64
2021/01/21 01:44:48;;;;;;;3.75;0.88;;;9.40;79.90;;;;;;5033010;28;20042;-64
2021/01/21 01:47:16;;;;;;;3.13;0.90;;;9.40;80.00;;;;;;5032677;28;21175;-64
2021/01/21 01:49:43;;;;;;;3.83;0.80;;;9.40;80.10;;;;;;5028895;28;20060;-64
2021/01/21 01:52:08;;;;;;;3.90;1.08;;;9.40;80.30;;;;;;5024729;28;20122;-64
2021/01/21 01:54:34;;;;;;;3.13;0.63;;;9.40;80.20;;;;;;5033197;28;20114;-64
2021/01/21 01:57:02;;;;;;;6.50;1.08;;;9.50;79.50;;;;;;5027719;28;20037;-64
2021/01/21 01:59:29;;;;;;;1.80;0.57;;;9.50;79.30;;;;;;5028221;28;20053;-64
2021/01/21 02:01:55;;;;;;;3.58;1.00;;;9.60;79.20;;;;;;5027991;28;20115;-64
2021/01/21 02:04:21;;;;;;;3.15;0.82;;;9.60;78.60;;;;;;5031623;28;20033;-64
2021/01/21 02:06:46;;;;;;;2.58;0.93;;;9.70;78.20;;;;;;5026916;28;20107;-64
2021/01/21 02:09:12;;;;;;;3.42;1.05;;;9.80;78.00;;;;;;5030421;28;20038;-64
2021/01/21 02:12:14;;;;;;;10.02;0.98;;;9.80;77.90;;;;;;5026617;28;20061;-64
2021/01/21 02:14:51;;;;;;;3.88;0.75;;;9.80;77.50;;;;;;5024176;28;20034;-64
2021/01/21 02:17:28;;;;;;;2.80;0.77;;;9.90;77.80;;;;;;5029516;28;20498;-64
2021/01/21 02:20:21;;;;;;;10.45;1.05;;;9.80;77.70;;;;;;5027279;28;20045;-64
2021/01/21 02:23:25;;;;;;;3.95;1.10;;;9.90;77.00;;;;;;5020447;28;20040;-64
2021/01/21 02:26:08;;;;;;;3.05;0.55;;;9.90;77.00;;;;;;5026233;28;20032;-64
2021/01/21 02:29:10;;;;;;;3.88;0.93;;;9.90;76.90;;;;;;5027174;28;20052;-64
2021/01/21 02:31:40;;;;;;;3.08;0.80;;;10.00;76.60;;;;;;5023442;28;20038;-64
2021/01/21 02:34:11;;;;;;;3.50;0.90;;;10.00;76.60;;;;;;5024385;28;20492;-64
2021/01/21 02:36:41;;;;;;;2.80;1.08;;;10.00;76.20;;;;;;5026917;28;20034;-64
2021/01/21 02:39:10;;;;;;;5.30;1.02;;;10.00;76.20;;;;;;5023676;28;20432;-64
2021/01/21 02:41:37;;;;;;;4.47;1.00;;;10.10;76.00;;;;;;5027140;28;20038;-64
2021/01/21 02:44:03;;;;;;;2.33;0.73;;;10.10;75.30;;;;;;5026102;28;20045;-64
2021/01/21 02:46:29;;;;;;;4.00;0.70;;;10.10;75.90;;;;;;5032748;28;20096;-64
2021/01/21 02:48:56;;;;;;;4.50;0.98;;;10.10;75.90;;;;;;5025099;28;20052;-64
2021/01/21 02:51:32;;;;;;;2.53;0.98;;;10.10;76.80;;;;;;5027715;28;20071;-64
2021/01/21 02:54:19;;;;;;;3.38;0.90;;;10.10;76.90;;;;;;5027796;28;20062;-64
2021/01/21 02:56:46;;;;;;;5.22;0.98;;;10.10;76.90;;;;;;5025136;28;20033;-64
2021/01/21 02:59:18;;;;;;;3.08;0.82;;;10.10;76.30;;;;;;5024814;28;20114;-64
2021/01/21 03:01:48;;;;;;;3.72;0.73;;;10.10;76.10;;;;;;5033057;28;20033;-64
2021/01/21 03:04:15;;;;;;;4.43;0.90;;;10.10;75.70;;;;;;5029060;28;20399;-64
2021/01/21 03:06:43;;;;;;;4.60;0.77;;;10.20;75.70;;;;;;5026503;28;20099;-64
2021/01/21 03:09:08;;;;;;;2.90;0.70;;;10.20;75.20;;;;;;5025946;28;20072;-64
2021/01/21 03:11:34;;;;;;;4.15;1.00;;;10.20;75.10;;;;;;5028945;28;20437;-64
2021/01/21 03:14:00;;;;;;;4.28;1.08;;;10.30;75.40;;;;;;5021906;28;20204;-64
2021/01/21 03:16:25;;;;;;;6.38;0.82;;;10.20;76.20;;;;;;5029298;28;20041;-64
2021/01/21 03:18:52;;;;;;;3.13;1.10;;;10.20;77.40;;;;;;5025049;28;20451;-64
2021/01/21 03:21:18;;;;;;;2.90;0.70;;;10.20;77.60;;;;;;5023318;28;20033;-64
2021/01/21 03:23:47;;;;;;;3.17;0.70;;;10.20;77.90;;;;;;5026063;28;20555;-64
2021/01/21 03:26:13;;;;;;;4.47;0.90;;;10.10;78.10;;;;;;5026867;28;20393;-64
2021/01/21 03:28:40;;;;;;;4.22;1.30;;;10.10;77.70;;;;;;5023779;28;20053;-64
2021/01/21 03:31:06;;;;;;;4.18;0.73;;;10.10;77.40;;;;;;5030003;28;20049;-64
2021/01/21 03:33:32;;;;;;;4.03;0.70;;;10.20;77.90;;;;;;5021259;28;20084;-64
2021/01/21 03:35:57;;;;;;;5.18;1.85;;;10.20;77.20;;;;;;5023769;28;20088;-64
2021/01/21 03:38:23;;;;;;;2.88;0.60;;;10.30;76.50;;;;;;5028093;28;20047;-64
2021/01/21 03:40:49;;;;;;;4.97;0.80;;;10.30;76.20;;;;;;5025020;28;20041;-64
2021/01/21 03:43:15;;;;;;;6.07;0.95;;;10.30;76.70;;;;;;5024753;28;20041;-64
2021/01/21 03:45:40;;;;;;;3.22;0.60;;;10.40;76.20;;;;;;5029846;28;20536;-64
2021/01/21 03:48:06;;;;;;;2.88;0.50;;;10.40;76.10;;;;;;5029677;28;20454;-64
2021/01/21 03:50:32;;;;;;;3.60;0.70;;;10.50;76.10;;;;;;5028657;28;20030;-64
2021/01/21 03:52:57;;;;;;;5.25;0.68;;;10.40;76.20;;;;;;5023724;28;20117;-64
2021/01/21 03:55:23;;;;;;;5.03;0.85;;;10.40;76.10;;;;;;5025480;28;20025;-64
2021/01/21 03:57:48;;;;;;;3.22;0.60;;;10.40;75.90;;;;;;5032176;28;20037;-64
2021/01/21 04:00:15;;;;;;;4.35;1.38;;;10.40;76.10;;;;;;5021213;28;20060;-64
2021/01/21 04:02:40;;;;;;;3.20;0.63;;;10.40;75.90;;;;;;5022586;28;20128;-64
2021/01/21 04:05:06;;;;;;;2.65;0.40;;;10.40;76.80;;;;;;5027613;28;20113;-64
2021/01/21 04:07:32;;;;;;;1.90;0.60;;;10.40;77.00;;;;;;5025045;28;20041;-64
2021/01/21 04:09:57;;;;;;;2.20;0.52;;;10.40;77.00;;;;;;5026438;28;20567;-64
2021/01/21 04:12:29;;;;;;;5.32;0.70;;;10.40;78.00;;;;;;5022561;28;20063;-64
2021/01/21 04:14:55;;;;;;;8.60;2.05;;;10.40;77.50;;;;;;5025816;28;20491;-64
2021/01/21 04:17:20;;;;;;;3.33;0.50;;;10.40;77.90;;;;;;5025341;28;20037;-65
2021/01/21 04:19:47;;;;;;;5.00;1.13;;;10.40;79.30;;;;;;5024529;28;20051;-65
2021/01/21 04:22:12;;;;;;;5.60;0.77;;;10.30;81.20;;;;;;5025897;28;20033;-65
2021/01/21 04:24:38;;;;;;;3.88;0.65;;;10.20;81.90;;;;;;5025511;28;20380;-64
2021/01/21 04:27:04;;;;;;;2.92;0.70;;;10.10;83.60;;;;;;5026783;28;20479;-64
2021/01/21 04:29:29;;;;;;;5.88;0.73;;;10.00;84.50;;;;;;5026339;28;20060;-65
2021/01/21 04:31:55;;;;;;;2.38;0.85;;;9.90;85.50;;;;;;5023563;28;20046;-64
2021/01/21 04:34:21;;;;;;;5.25;1.05;;;9.80;86.50;;;;;;5029458;28;20084;-65
2021/01/21 04:36:46;;;;;;;1.95;0.52;;;9.70;87.50;;;;;;5030553;28;20067;-64
2021/01/21 04:39:12;;;;;;;2.42;0.52;;;9.60;88.50;;;;;;5021369;28;20056;-64
2021/01/21 04:41:37;;;;;;;1.58;0.60;;;9.60;89.30;;;;;;5025915;28;20034;-65
2021/01/21 04:44:03;;;;;;;3.97;1.40;;;9.50;90.00;;;;;;5020456;28;20064;-64
2021/01/21 04:46:29;;;;;;;3.33;0.88;;;9.50;90.20;;;;;;5024265;28;20484;-64
2021/01/21 04:48:55;;;;;;;4.22;0.77;;;9.40;90.40;;;;;;5027246;28;20041;-64
2021/01/21 04:51:21;;;;;;;4.22;0.70;;;9.40;90.80;;;;;;5024185;28;20476;-64
2021/01/21 04:53:52;;;;;;;5.07;0.95;;;9.30;90.90;;;;;;5026332;28;20116;-64
2021/01/21 04:56:39;;;;;;;2.97;0.80;;;9.30;91.30;;;;;;5021297;28;20037;-64
2021/01/21 04:59:13;;;;;;;4.07;1.23;;;9.30;91.70;;;;;;5024879;28;20420;-65
2021/01/21 05:01:39;;;;;;;3.45;0.40;;;9.10;92.80;;;;;;5025414;28;20446;-65
2021/01/21 05:04:05;;;;;;;2.67;0.30;;;8.90;90.40;;;;;;5029662;28;20033;-65
2021/01/21 05:06:32;;;;;;;3.90;0.50;;;8.60;87.00;;;;;;5030600;28;20042;-64
2021/01/21 05:08:59;;;;;;;4.32;0.43;;;8.30;86.40;;;;;;5028016;28;20121;-64
2021/01/21 05:11:25;;;;;;;2.83;0.25;;;8.20;84.50;;;;;;5034228;28;20086;-64
2021/01/21 05:13:50;;;;;;;3.30;0.73;;;8.00;84.40;;;;;;5030632;28;20036;-65
2021/01/21 05:16:16;;;;;;;3.70;0.40;;;7.90;84.70;;;;;;5027986;28;20067;-65
2021/01/21 05:18:43;;;;;;;1.45;0.22;;;7.80;84.60;;;;;;5029526;28;20496;-64
2021/01/21 05:21:09;;;;;;;4.82;0.50;;;7.80;84.80;;;;;;5029224;28;20099;-64
2021/01/21 05:23:35;;;;;;;5.82;0.68;;;7.80;85.00;;;;;;5034802;28;20046;-65
2021/01/21 05:26:01;;;;;;;1.73;0.30;;;7.70;85.00;;;;;;5027571;28;20037;-61
2021/01/21 05:28:28;;;;;;;2.72;0.50;;;7.70;85.30;;;;;;5028852;28;20045;-61
2021/01/21 05:30:57;;;;;;;4.88;0.40;;;7.60;85.30;;;;;;5031322;28;20041;-61
2021/01/21 05:33:24;;;;;;;6.18;0.60;;;7.60;85.70;;;;;;5026503;28;20559;-61
2021/01/21 05:35:53;;;;;;;5.90;0.52;;;7.50;86.00;;;;;;5027015;28;20251;-61
2021/01/21 05:38:20;;;;;;;5.47;0.57;;;7.50;86.20;;;;;;5034290;28;20047;-61
2021/01/21 05:40:46;;;;;;;3.75;0.57;;;7.40;86.20;;;;;;5029095;28;20149;-61
2021/01/21 05:43:14;;;;;;;5.93;0.95;;;7.40;86.10;;;;;;5031284;28;20026;-61
2021/01/21 05:45:44;;;;;;;3.13;0.30;;;7.30;86.00;;;;;;5027393;28;20264;-61
2021/01/21 05:48:11;;;;;;;4.30;0.60;;;7.30;86.00;;;;;;5027802;28;20453;-61
2021/01/21 05:50:36;;;;;;;5.82;0.50;;;7.20;86.00;;;;;;5030913;28;20038;-61
2021/01/21 05:53:06;;;;;;;5.82;1.15;;;7.20;86.00;;;;;;5028846;28;21271;-61
2021/01/21 05:55:36;;;;;;;5.85;0.77;;;7.10;86.60;;;;;;5026027;28;20065;-61
2021/01/21 05:58:02;;;;;;;5.20;0.70;;;7.10;86.80;;;;;;5025639;28;20041;-61
2021/01/21 06:00:28;;;;;;;8.73;0.90;;;7.10;86.70;;;;;;5022997;28;20049;-61
2021/01/21 06:02:54;;;;;;;8.38;0.85;;;7.10;86.90;;;;;;5031083;28;20152;-61
2021/01/21 06:05:23;;;;;;;5.85;0.63;;;7.00;86.90;;;;;;5024712;28;20112;-61
2021/01/21 06:07:50;;;;;;;8.82;1.25;;;7.10;87.10;;;;;;5029463;28;20064;-61
2021/01/21 06:10:22;;;;;;;11.18;1.90;;;7.10;87.00;;;;;;5029170;28;20048;-61
2021/01/21 06:12:52;;;;;;;10.57;1.02;;;7.10;88.00;;;;;;5026482;28;20041;-61
2021/01/21 06:15:18;;;;;;;10.63;0.73;;;7.10;88.10;;;;;;5027004;28;20044;-61
2021/01/21 06:17:47;;;;;;;7.75;1.58;;;7.10;88.60;;;;;;5023453;28;20368;-61
2021/01/21 06:20:13;;;;;;;9.63;1.02;;;7.00;89.10;;;;;;5027529;28;20037;-61
2021/01/21 06:22:43;;;;;;;14.50;1.48;;;7.00;89.60;;;;;;5027329;28;20050;-61
2021/01/21 06:25:14;;;;;;;14.52;1.40;;;7.00;89.10;;;;;;5025591;28;20511;-61
2021/01/21 06:27:42;;;;;;;11.55;1.45;;;6.90;89.20;;;;;;5028958;28;20037;-61
2021/01/21 06:30:14;;;;;;;9.07;1.17;;;6.90;89.00;;;;;;5027066;28;20049;-61
2021/01/21 06:32:48;;;;;;;12.27;1.40;;;6.90;89.10;;;;;;5027168;28;20030;-61
2021/01/21 06:35:19;;;;;;;31.23;2.22;;;6.90;87.70;;;;;;5027666;28;20040;-61
2021/01/21 06:37:50;;;;;;;14.05;1.38;;;6.80;87.70;;;;;;5025905;28;20132;-61
2021/01/21 06:40:18;;;;;;;15.02;2.42;;;6.80;87.30;;;;;;5030263;28;20108;-61
2021/01/21 06:43:11;;;;;;;12.32;1.77;;;6.70;87.00;;;;;;5026604;28;20049;-61
2021/01/21 06:45:38;;;;;;;12.60;2.40;;;6.70;86.60;;;;;;5023337;28;20092;-61
2021/01/21 06:48:05;;;;;;;17.10;2.30;;;6.60;86.20;;;;;;5030517;28;20030;-61
2021/01/21 06:50:32;;;;;;;9.70;1.20;;;6.60;86.40;;;;;;5024704;28;20507;-61
2021/01/21 06:53:02;;;;;;;10.75;1.48;;;6.40;86.70;;;;;;5031951;28;20068;-61
2021/01/21 06:55:29;;;;;;;10.27;1.55;;;6.50;86.90;;;;;;5027009;28;20037;-61
2021/01/21 06:57:55;;;;;;;7.93;1.70;;;6.50;87.00;;;;;;5032217;28;20511;-61
2021/01/21 07:00:43;;;;;;;10.18;1.52;;;6.40;87.00;;;;;;5026321;28;20033;-61
2021/01/21 07:03:30;;;;;;;9.90;1.20;;;6.40;87.20;;;;;;5030523;28;20041;-61
2021/01/21 07:06:00;;;;;;;7.63;1.00;;;6.40;87.00;;;;;;5029452;28;20044;-61
2021/01/21 07:08:26;;;;;;;11.93;1.30;;;6.40;85.50;;;;;;5021968;28;20042;-61
2021/01/21 07:10:58;;;;;;;9.68;0.95;;;6.40;84.70;;;;;;5024401;28;20103;-61
2021/01/21 07:13:25;;;;;;;10.15;1.00;;;6.40;85.30;;;;;;5027116;28;20038;-61
2021/01/21 07:16:06;;;;;;;10.27;1.42;;;6.30;85.70;;;;;;5028089;28;20040;-61
2021/01/21 07:18:36;;;;;;;5.47;0.82;;;6.30;86.00;;;;;;5027896;28;20100;-61
2021/01/21 07:21:13;;;;;;;10.50;1.60;;;6.20;86.50;;;;;;5022256;28;20484;-61
2021/01/21 07:23:50;;;;;;;10.10;1.15;;;6.20;87.20;;;;;;5025333;28;20057;-61
2021/01/21 07:26:18;;;;;;;10.52;1.08;;;6.10;87.60;;;;;;5029061;28;20095;-61
2021/01/21 07:29:14;;;;;;;10.57;1.00;;;6.00;87.90;;;;;;5025604;28;20553;-61
2021/01/21 07:31:51;;;;;;;10.77;1.88;;;5.90;88.20;;;;;;5028057;28;20053;-61
2021/01/21 07:34:49;;;;;;;12.20;1.08;;;5.90;87.80;;;;;;5031984;28;20546;-61
2021/01/21 07:37:29;;;;;;;13.65;1.83;;;5.90;87.10;;;;;;4999042;28;20045;-61
2021/01/21 07:39:56;;;;;;;19.95;1.52;;;5.90;86.70;;;;;;5023960;28;20124;-61
2021/01/21 07:42:38;;;;;;;9.63;1.23;;;5.90;86.20;;;;;;5034435;28;20037;-61
2021/01/21 07:45:09;;;;;;;7.60;1.10;;;5.90;85.50;;;;;;5025694;28;20194;-61
2021/01/21 07:47:43;;;;;;;13.05;1.42;;;6.00;84.30;;;;;;5026280;28;20069;-61
2021/01/21 07:50:24;;;;;;;9.05;1.85;;;6.00;83.90;;;;;;5024547;28;20393;-61
2021/01/21 07:52:58;;;;;;;5.55;1.10;;;6.00;83.00;;;;;;5029897;28;20037;-61
2021/01/21 07:55:46;;;;;;;7.18;0.98;;;6.00;82.90;;;;;;5029624;28;20079;-61
2021/01/21 07:58:22;;;;;;;13.52;1.20;;;6.10;82.70;;;;;;5026100;28;20494;-61
2021/01/21 08:00:50;;;;;;;8.20;0.60;;;6.00;83.10;;;;;;5025725;28;20037;-61
2021/01/21 08:03:27;;;;;;;8.13;0.80;;;6.00;83.40;;;;;;5032542;28;20040;-61
2021/01/21 08:06:05;;;;;;;12.43;1.10;;;6.00;83.90;;;;;;5022721;28;20553;-61
2021/01/21 08:08:31;;;;;;;7.85;1.17;;;5.90;84.20;;;;;;5026298;28;20336;-61
2021/01/21 08:11:04;;;;;;;10.25;1.45;;;6.00;84.10;;;;;;5023833;28;20403;-61
2021/01/21 08:13:31;;;;;;;8.10;0.70;;;6.00;84.00;;;;;;5023459;28;20034;-61
2021/01/21 08:15:56;;;;;;;10.55;0.63;;;6.00;84.20;;;;;;5029748;28;20076;-61
2021/01/21 08:18:23;;;;;;;9.60;1.00;;;6.00;84.30;;;;;;5022491;28;20124;-61
2021/01/21 08:20:49;;;;;;;7.22;0.80;;;6.00;84.10;;;;;;5026390;28;20041;-61
2021/01/21 08:23:16;;;;;;;8.48;1.50;;;6.00;83.60;;;;;;5025637;28;20082;-61
2021/01/21 08:25:44;;;;;;;5.70;1.02;;;6.00;83.20;;;;;;5029505;28;20480;-61
2021/01/21 08:28:13;;;;;;;8.85;1.40;;;6.10;83.00;;;;;;5024652;28;20041;-61
2021/01/21 08:30:39;;;;;;;9.25;2.08;;;6.20;82.10;;;;;;5030520;28;20037;-61
2021/01/21 08:33:33;;;;;;;7.78;1.25;;;6.20;81.60;;;;;;5027362;28;20044;-61
2021/01/21 08:36:05;;;;;;;7.20;1.25;;;6.20;81.50;;;;;;5019698;28;20037;-61
2021/01/21 08:38:35;;;;;;;7.93;0.90;;;6.20;81.60;;;;;;5028125;28;20140;-61
2021/01/21 08:41:07;;;;;;;7.00;0.98;;;6.20;82.20;;;;;;5030864;28;20046;-61
2021/01/21 08:43:37;;;;;;;8.90;1.08;;;6.20;82.60;;;;;;5032516;28;20092;-60
2021/01/21 08:46:20;;;;;;;10.82;1.35;;;6.10;82.90;;;;;;5027843;28;20030;-60
2021/01/21 08:48:47;;;;;;;8.27;2.63;;;6.10;83.20;;;;;;5034773;28;20044;-60
2021/01/21 08:51:29;;;;;;;7.30;1.50;;;6.20;83.60;;;;;;5029839;28;20077;-61
2021/01/21 08:54:16;;;;;;;7.15;0.90;;;6.20;83.20;;;;;;5025853;28;20109;-61
2021/01/21 08:57:05;;;;;;;8.48;1.38;;;6.20;82.90;;;;;;5027681;28;20129;-61
2021/01/21 08:59:33;;;;;;;12.05;1.85;;;6.20;82.80;;;;;;5031707;28;20095;-61
2021/01/21 09:01:59;;;;;;;5.75;0.90;;;6.20;82.80;;;;;;5032571;28;20044;-60
2021/01/21 09:04:30;;;;;;;10.32;0.90;;;6.20;82.80;;;;;;5024353;28;20043;-60
2021/01/21 09:06:57;;;;;;;7.35;1.15;;;6.20;82.90;;;;;;5030548;28;20045;-61
2021/01/21 09:09:26;;;;;;;13.48;1.70;;;6.20;82.70;;;;;;5029538;28;20033;-61
2021/01/21 09:11:52;;;;;;;6.80;1.02;;;6.20;82.60;;;;;;5028368;28;20080;-61
2021/01/21 09:14:23;;;;;;;10.90;1.20;;;6.20;82.40;;;;;;5031623;28;20079;-61
2021/01/21 09:16:51;;;;;;;8.18;1.10;;;6.20;82.30;;;;;;5025304;28;20045;-60
2021/01/21 09:19:28;;;;;;;9.55;1.15;;;6.20;82.20;;;;;;5036207;28;20038;-60
2021/01/21 09:22:02;;;;;;;5.97;0.90;;;6.20;82.10;;;;;;5025803;28;20049;-61
2021/01/21 09:24:29;;;;;;;9.10;1.15;;;6.20;81.80;;;;;;5025485;28;20061;-61
2021/01/21 09:27:16;;;;;;;12.52;1.80;;;6.20;81.70;;;;;;5024605;28;20049;-61
2021/01/21 09:29:51;;;;;;;8.60;1.20;;;6.30;80.60;;;;;;5029218;28;20171;-61
2021/01/21 09:32:18;;;;;;;12.93;1.35;;;6.30;81.10;;;;;;5024684;28;20041;-61
2021/01/21 09:34:59;;;;;;;6.30;1.58;;;6.30;81.00;;;;;;5031046;28;20034;-61
2021/01/21 09:37:27;;;;;;;7.05;0.90;;;6.30;81.00;;;;;;5027332;28;20068;-61
2021/01/21 09:39:53;;;;;;;11.52;1.27;;;6.30;80.50;;;;;;5032658;28;20045;-61
2021/01/21 09:42:19;;;;;;;8.38;1.20;;;6.40;80.70;;;;;;5024055;28;20037;-61
2021/01/21 09:44:46;;;;;;;7.63;0.98;;;6.40;81.00;;;;;;5030677;28;20075;-79
2021/01/21 09:47:15;;;;;;;8.43;0.80;;;6.40;80.20;;;;;;5030237;28;20080;-77
2021/01/21 09:49:43;;;;;;;10.07;1.10;;;6.40;79.60;;;;;;5024948;28;20041;-77
2021/01/21 09:52:09;;;;;;;8.98;1.73;;;6.50;79.30;;;;;;5027276;28;20041;-77
2021/01/21 09:54:35;;;;;;;12.05;1.70;;;6.60;79.60;;;;;;5029559;28;20090;-77
2021/01/21 09:57:01;;;;;;;9.18;0.90;;;6.60;79.80;;;;;;5026031;28;20037;-77
2021/01/21 09:59:29;;;;;;;10.63;1.10;;;6.60;80.00;;;;;;5027188;28;20449;-77
2021/01/21 10:01:54;;;;;;;9.82;1.02;;;6.60;78.50;;;;;;5022571;28;20500;-77
2021/01/21 10:04:20;;;;;;;8.02;1.83;;;6.70;79.40;;;;;;5024053;28;20045;-78
2021/01/21 10:06:50;;;;;;;12.02;2.65;;;6.80;79.30;;;;;;5029059;28;20513;-78
2021/01/21 10:09:16;;;;;;;9.73;1.23;;;6.80;80.20;;;;;;5030274;28;20048;-78
2021/01/21 10:11:41;;;;;;;10.40;1.40;;;6.80;79.60;;;;;;5028112;28;20422;-78
2021/01/21 10:14:07;;;;;;;10.52;1.85;;;6.90;78.70;;;;;;5033060;28;20068;-78
2021/01/21 10:16:33;;;;;;;9.95;1.20;;;7.00;78.90;;;;;;5026112;28;20041;-78
2021/01/21 10:18:59;;;;;;;12.57;1.67;;;7.00;79.00;;;;;;5025429;28;20037;-78
2021/01/21 10:21:25;;;;;;;7.57;1.48;;;7.10;78.60;;;;;;5029648;28;20038;-77
2021/01/21 10:23:54;;;;;;;9.95;1.33;;;7.30;78.20;;;;;;5028765;28;20064;-78
2021/01/21 10:26:20;;;;;;;5.47;1.17;;;7.20;78.30;;;;;;5038421;28;20060;-78
2021/01/21 10:28:46;;;;;;;10.18;1.75;;;7.40;77.60;;;;;;5026755;28;20068;-78
2021/01/21 10:31:12;;;;;;;12.60;2.10;;;7.40;77.60;;;;;;5014309;28;20048;-78
2021/01/21 10:33:37;;;;;;;11.30;2.30;;;7.50;77.40;;;;;;5016346;28;20041;-78
2021/01/21 10:36:05;;;;;;;12.65;2.53;;;7.60;77.10;;;;;;5026891;28;20037;-65
2021/01/21 10:38:31;;;;;;;12.25;1.48;;;7.60;76.70;;;;;;5027227;28;20080;-65
2021/01/21 10:40:57;;;;;;;10.90;2.20;;;7.60;77.50;;;;;;5024038;28;20037;-65
2021/01/21 10:43:23;;;;;;;12.75;1.48;;;7.60;77.40;;;;;;5030804;28;20111;-65
2021/01/21 10:45:48;;;;;;;11.95;1.52;;;7.60;77.90;;;;;;5030553;28;20171;-65
2021/01/21 10:48:14;;;;;;;8.07;1.00;;;7.60;77.50;;;;;;5027136;28;20480;-65
2021/01/21 10:50:40;;;;;;;10.05;1.27;;;7.70;78.30;;;;;;5028005;28;20037;-65
2021/01/21 10:53:06;;;;;;;9.75;1.63;;;7.70;77.00;;;;;;5034048;28;20037;-65
2021/01/21 10:55:32;;;;;;;9.75;1.67;;;7.70;76.70;;;;;;5032706;28;20054;-65
2021/01/21 10:57:57;;;;;;;8.45;1.40;;;7.70;77.50;;;;;;5027610;28;20103;-65
2021/01/21 11:00:23;;;;;;;10.05;1.27;;;7.70;77.20;;;;;;5030455;28;20037;-65
2021/01/21 11:02:49;;;;;;;8.52;1.33;;;7.70;77.30;;;;;;5023989;28;21491;-65
2021/01/21 11:05:15;;;;;;;7.88;1.40;;;7.70;77.30;;;;;;5025829;28;20034;-65
2021/01/21 11:07:41;;;;;;;11.45;1.38;;;7.70;76.80;;;;;;5028385;28;20033;-65
2021/01/21 11:10:07;;;;;;;7.63;1.00;;;7.70;77.00;;;;;;5032794;28;20068;-65
2021/01/21 11:12:35;;;;;;;9.52;2.00;;;7.70;77.50;;;;;;5027632;28;20030;-65
2021/01/21 11:15:05;;;;;;;7.35;1.50;;;7.70;77.90;;;;;;5027684;28;20175;-65
2021/01/21 11:17:31;;;;;;;11.68;1.63;;;7.70;78.40;;;;;;5025982;28;20100;-65
2021/01/21 11:19:56;;;;;;;11.57;1.60;;;7.80;77.80;;;;;;5024307;28;20479;-65
2021/01/21 11:22:26;;;;;;;7.18;0.98;;;7.80;78.20;;;;;;5024752;28;20042;-65
2021/01/21 11:24:52;;;;;;;6.03;1.23;;;7.90;78.10;;;;;;5026982;28;20507;-65
2021/01/21 11:27:18;;;;;;;6.22;0.88;;;7.90;78.10;;;;;;5029783;28;20037;-65
2021/01/21 11:29:44;;;;;;;7.57;1.15;;;8.00;77.40;;;;;;5028639;28;20479;-65
2021/01/21 11:32:10;;;;;;;9.32;1.60;;;8.00;77.30;;;;;;5039131;28;20057;-65
2021/01/21 11:34:36;;;;;;;7.30;0.93;;;8.10;77.10;;;;;;5032504;28;20037;-65
2021/01/21 11:37:01;;;;;;;10.85;1.13;;;8.20;76.20;;;;;;5026770;28;20029;-64
2021/01/21 11:39:27;;;;;;;7.68;1.30;;;8.20;75.60;;;;;;5023385;28;20041;-65
2021/01/21 11:41:53;;;;;;;7.47;1.08;;;8.20;76.50;;;;;;5024787;28;20041;-65
2021/01/21 11:44:19;;;;;;;5.60;1.23;;;8.30;76.70;;;;;;5025329;28;20045;-65
2021/01/21 11:46:44;;;;;;;8.05;0.98;;;8.40;76.60;;;;;;5027279;28;20040;-64
2021/01/21 11:49:10;;;;;;;5.13;1.15;;;8.50;75.60;;;;;;5025415;28;20046;-65
2021/01/21 11:51:36;;;;;;;8.02;1.40;;;8.40;76.20;;;;;;5033161;28;20463;-65
2021/01/21 11:54:01;;;;;;;7.80;0.90;;;8.40;75.30;;;;;;5031689;28;20029;-64
2021/01/21 11:56:27;;;;;;;8.20;1.17;;;8.30;75.90;;;;;;5026907;28;20033;-65
2021/01/21 11:58:52;;;;;;;8.82;1.27;;;8.30;76.10;;;;;;5024484;28;20125;-64
2021/01/21 12:01:18;;;;;;;5.97;1.10;;;8.30;76.60;;;;;;5024786;28;20509;-64
2021/01/21 12:03:44;;;;;;;9.32;1.35;;;8.30;76.20;;;;;;5025891;28;20034;-65
2021/01/21 12:06:10;;;;;;;13.95;2.50;;;8.30;76.20;;;;;;5031748;28;20046;-65
2021/01/21 12:08:36;;;;;;;7.57;1.85;;;8.30;76.50;;;;;;5028769;28;20525;-64
2021/01/21 12:11:01;;;;;;;20.40;2.47;;;8.30;76.50;;;;;;5029875;28;20045;-64
2021/01/21 12:13:27;;;;;;;10.18;1.30;;;8.20;76.20;;;;;;5030435;28;20045;-65
2021/01/21 12:15:53;;;;;;;9.90;2.85;;;8.20;76.40;;;;;;5035773;28;20043;-64
2021/01/21 12:18:19;;;;;;;8.60;1.58;;;8.20;76.00;;;;;;5031344;28;20041;-64
2021/01/21 12:20:45;;;;;;;16.00;1.85;;;8.10;76.70;;;;;;5027226;28;20048;-65
2021/01/21 12:23:11;;;;;;;8.55;1.13;;;8.10;76.70;;;;;;5028631;28;20034;-64
2021/01/21 12:25:37;;;;;;;11.23;1.35;;;8.10;77.20;;;;;;5031290;28;20045;-64
2021/01/21 12:28:08;;;;;;;7.50;1.10;;;8.10;77.70;;;;;;5024918;28;20110;-64
2021/01/21 12:30:34;;;;;;;11.07;1.23;;;8.20;77.40;;;;;;5030114;28;20048;-64
2021/01/21 12:32:59;;;;;;;8.95;1.30;;;8.30;75.90;;;;;;5031098;28;20109;-65
2021/01/21 12:35:25;;;;;;;9.13;1.17;;;8.30;76.20;;;;;;5033132;28;20386;-64
2021/01/21 12:37:53;;;;;;;9.10;1.27;;;8.30;76.40;;;;;;5028852;28;20038;-65
2021/01/21 12:40:19;;;;;;;5.53;0.68;;;8.30;76.60;;;;;;5029074;28;20041;-64
2021/01/21 12:42:46;;;;;;;13.82;1.42;;;8.40;76.90;;;;;;5033607;28;20046;-65
2021/01/21 12:45:12;;;;;;;5.57;0.88;;;8.40;76.00;;;;;;5033898;28;20105;-64
2021/01/21 12:47:38;;;;;;;11.05;1.40;;;8.40;76.20;;;;;;5030025;28;20116;-64
2021/01/21 12:50:05;;;;;;;10.50;1.38;;;8.30;76.00;;;;;;5021764;28;20049;-64
2021/01/21 12:52:31;;;;;;;7.53;1.10;;;8.30;76.20;;;;;;5030324;28;20072;-64
2021/01/21 12:54:58;;;;;;;7.97;0.80;;;8.20;76.80;;;;;;5029819;28;20045;-65
2021/01/21 12:57:25;;;;;;;6.78;1.05;;;8.20;76.60;;;;;;5028821;28;20037;-64
2021/01/21 12:59:58;;;;;;;4.97;0.88;;;8.10;76.90;;;;;;5030428;28;20030;-64